Nearby METAR Reports

 

KMHT - Manchester, New Hampshire, USA
Distance from station: NNW 6mi, 9km
Updated: 2018-09-25 08:53
Overcast
Overcast
 Wind from N
Wind: N 6 mph , 9 km/h
Temperature: 52°F , 11°C
Dew Point: 43°F , 6°C
Humidity: 72%
Barometer: 30.53 inHg , 1033.9 hPa
Clouds: Overcast
Visibility: 10 miles , 16 km
Cloud details: Few Clouds 2900 ft
Mostly cloudy 11000 ft
Overcast 20000 ft
2018/09/25 12:53 KMHT 251253Z 35005KT 10SM FEW029 BKN110 OVC200 11/06 A3053 RMK AO2 SLP352 T01060061
KASH - Nashua/Boire Fld, New Hampshire, USA
Distance from station: SW 9mi, 15km
Updated: 2018-09-25 08:56
Light rain, Overcast
Light rain, Overcast
 Wind from NW
Wind: NW 6 mph , 9 km/h
Temperature: 46°F , 8°C
Wind Chill: 43°F , 6°C
Dew Point: 45°F , 7°C
Humidity: 93%
Barometer: 30.55 inHg , 1034.5 hPa
Summary: Light rain
Clouds: Overcast
Visibility: 10 miles , 16 km
Cloud details: Partly cloudy 8000 ft
Overcast 11000 ft
2018/09/25 12:56 KASH 251256Z 31005KT 10SM -RA SCT080 OVC110 08/07 A3055 RMK AO2 RAB40 SLP355 T00830072 PNO $
 
KLWM - Lawrence, Massachusetts, USA
Distance from station: SE 16mi, 26km
Updated: 2018-09-25 08:54
Few Clouds
Few Clouds
 Wind from NNE
Wind: NNE 5 mph , 7 km/h
Temperature: 54°F , 12°C
Dew Point: 45°F , 7°C
Humidity: 72%
Barometer: 30.55 inHg , 1034.5 hPa
Clouds: Few Clouds
Visibility: 10 miles , 16 km
Cloud details: Few Clouds 2500 ft
2018/09/25 12:54 KLWM 251254Z 02004KT 10SM FEW025 12/07 A3055 RMK AO2 SLP347 T01170072
KCON - Concord, New Hampshire, USA
Distance from station: NNW 24mi, 39km
Updated: 2018-09-25 08:51
Partly cloudy
Partly cloudy
 Wind from calm
Wind: Calm
Temperature: 48°F , 9°C
Dew Point: 41°F , 5°C
Humidity: 76%
Barometer: 30.55 inHg , 1034.5 hPa
Clouds: Partly cloudy
Visibility: 10 miles , 16 km
Cloud details: Partly cloudy 11000 ft
2018/09/25 12:51 KCON 251251Z AUTO 00000KT 10SM SCT110 09/05 A3055 RMK AO2 SLP347 T00890050
 
KBED - Bedford, Massachusetts, USA
Distance from station: S 28mi, 45km
Updated: 2018-09-25 08:56
Light rain, Overcast
Light rain, Overcast
 Wind from calm
Wind: Calm
Temperature: 48°F , 9°C
Dew Point: 46°F , 8°C
Humidity: 94%
Barometer: 30.51 inHg , 1033.2 hPa
Summary: Light rain
Clouds: Overcast
Visibility: 10 miles , 16 km
Cloud details: Overcast 11000 ft
2018/09/25 12:56 KBED 251256Z 00000KT 10SM -RA OVC110 09/08 A3051 RMK AO2 RAB10 SLP346 P0000 T00940078
KFIT - Fitchburg, Massachusetts, USA
Distance from station: SW 29mi, 47km
Updated: 2018-09-25 08:52
Light rain, Overcast
Light rain, Overcast
 Wind from NW
Wind: NW 5 mph , 7 km/h
Temperature: 46°F , 8°C
Wind Chill: 44°F , 7°C
Dew Point: 45°F , 7°C
Humidity: 93%
Barometer: 30.54 inHg , 1034.2 hPa
Summary: Light rain
Clouds: Overcast
Visibility: 8 miles , 13 km
Cloud details: Overcast 10000 ft
2018/09/25 12:52 KFIT 251252Z AUTO 32004KT 8SM -RA OVC100 08/07 A3054 RMK AO2 RAB01 SLP344 P0002 T00830067
 
KBVY - Beverly, Massachusetts, USA
Distance from station: SE 30mi, 49km
Updated: 2018-09-25 08:53
Overcast
Overcast
 Wind from ESE
Wind: ESE 9 mph , 15 km/h
Temperature: 61°F , 16°C
Dew Point: 54°F , 12°C
Humidity: 77%
Barometer: 30.52 inHg , 1033.5 hPa
Clouds: Overcast
Visibility: 10 miles , 16 km
Cloud details: Overcast 2300 ft
2018/09/25 12:53 KBVY 251253Z 12008KT 10SM OVC023 16/12 A3052 RMK AO2 SLP331 T01560117
KPSM - Portsmouth/Pease, New Hampshire, USA
Distance from station: ENE 31mi, 51km
Updated: 2018-09-25 08:56
Overcast
Overcast
 Wind from calm
Wind: Calm
Temperature: 52°F , 11°C
Dew Point: 45°F , 7°C
Humidity: 77%
Barometer: 30.52 inHg , 1033.5 hPa
Clouds: Overcast
Visibility: 10 miles , 16 km
Cloud details: Partly cloudy 3000 ft
Overcast 18000 ft
2018/09/25 12:56 KPSM 251256Z 00000KT 10SM SCT030 OVC180 11/07 A3052 RMK AO2A SLP338 T01110072
 
KAFN - Jaffrey, New Hampshire, USA
Distance from station: W 32mi, 52km
Updated: 2018-09-25 08:52
Light rain, Overcast
Light rain, Overcast
 Wind from calm
Wind: Calm
Temperature: 48°F , 9°C
Dew Point: 46°F , 8°C
Humidity: 94%
Barometer: 30.53 inHg , 1033.9 hPa
Summary: Light rain
Clouds: Overcast
Visibility: 8 miles , 13 km
Cloud details: Overcast 10000 ft
2018/09/25 12:52 KAFN 251252Z AUTO 00000KT 8SM -RA OVC100 09/08 A3053 RMK AO2 RAB10 SLP347 P0001 T00940083
KDAW - Rochester, New Hampshire, USA
Distance from station: NE 37mi, 60km
Updated: 2018-09-25 08:51
Clear
Clear
 Wind from varies
Wind: varies 5 mph , 7 km/h
Temperature: 46°F , 8°C
Wind Chill: 44°F , 7°C
Dew Point: 43°F , 6°C
Humidity: 87%
Barometer: 30.54 inHg , 1034.2 hPa
Clouds: Clear
Visibility: 10 miles , 16 km
2018/09/25 12:51 KDAW 251251Z AUTO VRB04KT 10SM CLR 08/06 A3054 RMK AO2 SLP342 T00830061
 
KBOS - Boston, Massachusetts, USA
Distance from station: SSE 39mi, 63km
Updated: 2018-09-25 08:54
Overcast
Overcast
 Wind from ESE
Wind: ESE 17 mph , 28 km/h
Temperature: 63°F , 17°C
Dew Point: 54°F , 12°C
Humidity: 73%
Barometer: 30.52 inHg , 1033.5 hPa
Clouds: Overcast
Visibility: 10 miles , 16 km
Cloud details: Few Clouds 2100 ft
Overcast 11000 ft
2018/09/25 12:54 KBOS 251254Z 11015KT 10SM FEW021 OVC110 17/12 A3052 RMK AO2 SLP334 T01670117
KEEN - Keene/Dillant, New Hampshire, USA
Distance from station: W 45mi, 73km
Updated: 2018-09-25 08:56
Light rain, Overcast
Light rain, Overcast
 Wind from calm
Wind: Calm
Barometer: 30.52 inHg , 1033.5 hPa
Summary: Light rain
Clouds: Overcast
Visibility: 8 miles , 13 km
Cloud details: Partly cloudy 4700 ft
Mostly cloudy 8000 ft
Overcast 9500 ft
2018/09/25 12:56 KEEN 251256Z AUTO 00000KT 8SM -RA SCT047 BKN080 OVC095 A3052 RMK AO2 RAB1157 SLPNO P0002 FZRANO $
 
KMQE - East Milton, Massachusetts, USA
Distance from station: SSE 47mi, 75km
Updated: 2018-09-19 04:56
NOT Current

 Wind from NNE
Wind: NNE 14 mph , 22 km/h, Gust: 22 mph , 35 km/h
Temperature: 64°F , 18°C
Dew Point: 64°F , 18°C
Humidity: 100%
Barometer: 29.81 inHg , 1009.5 hPa
2018/09/19 08:56 KMQE 190856Z AUTO 03012G19KT 18/18 A2981 RMK AO1 SLP103 P0001 60001 T01830183 53012
KORH - Worcester, Massachusetts, USA
Distance from station: SSW 48mi, 78km
Updated: 2018-09-25 08:54
Light rain, Overcast
Light rain, Overcast
 Wind from NE
Wind: NE 7 mph , 11 km/h
Temperature: 46°F , 8°C
Wind Chill: 42°F , 6°C
Dew Point: 46°F , 8°C
Humidity: 100%
Barometer: 30.51 inHg , 1033.2 hPa
Summary: Light rain
Clouds: Overcast
Visibility: 10 miles , 16 km
Cloud details: Few Clouds 4700 ft
Overcast 9500 ft
2018/09/25 12:54 KORH 251254Z 04006KT 10SM -RA FEW047 OVC095 08/08 A3051 RMK AO2 SLP336 P0002 T00830078
 
KOWD - Norwood, Massachusetts, USA
Distance from station: SSE 48mi, 78km
Updated: 2018-09-25 08:53
Overcast
Overcast
 Wind from calm
Wind: Calm
Temperature: 57°F , 14°C
Dew Point: 54°F , 12°C
Humidity: 88%
Barometer: 30.50 inHg , 1032.8 hPa
Clouds: Overcast
Visibility: 10 miles , 16 km
Cloud details: Few Clouds 8000 ft
Overcast 11000 ft
2018/09/25 12:53 KOWD 251253Z 00000KT 10SM FEW080 OVC110 14/12 A3050 RMK AO2 SLP329 T01440122
KLCI - Laconia Muni, New Hampshire, USA
Distance from station: N 49mi, 78km
Updated: 2018-09-25 09:17
Mostly cloudy
Mostly cloudy
 Wind from ENE
Wind: ENE 5 mph , 7 km/h
Temperature: 48°F , 9°C
Wind Chill: 46°F , 8°C
Dew Point: 43°F , 6°C
Humidity: 82%
Barometer: 30.56 inHg , 1034.9 hPa
Clouds: Mostly cloudy
Visibility: 10 miles , 16 km
Cloud details: Mostly cloudy 2500 ft
Mostly cloudy 9000 ft
2018/09/25 13:17 KLCI 251317Z AUTO 06004KT 10SM BKN025 BKN090 09/06 A3056 RMK AO2 PWINO
 
KSFM - Sanford Muni, Maine, USA
Distance from station: NE 49mi, 79km
Updated: 2018-09-25 08:56
Partly cloudy
Partly cloudy
 Wind from NE
Wind: NE 8 mph , 13 km/h
Temperature: 46°F , 8°C
Wind Chill: 42°F , 6°C
Dew Point: 43°F , 6°C
Humidity: 87%
Barometer: 30.56 inHg , 1034.9 hPa
Clouds: Partly cloudy
Visibility: 10 miles , 16 km
Cloud details: Partly cloudy 3000 ft
2018/09/25 12:56 KSFM 251256Z AUTO 04007KT 10SM SCT030 08/06 A3056 RMK AO2 SLP354 T00830056